Time;durP1;ratioP1;P1;durP2;ratioP2;P2;SDS_P1;SDS_P2;PMS_P1;PMS_P2;Temp;Humidity;BMP_temperature;BMP_pressure;BME280_temperature;BME280_humidity;BME280_pressure;Samples;Min_cycle;Max_cycle;Signal;HPM_P1;HPM_P2
2022/06/27 00:01:36;;;;;;;9.20;0.43;;;13.60;99.90;;;;;;5027076;28;20084;-70
2022/06/27 00:04:05;;;;;;;1.50;0.40;;;13.70;99.90;;;;;;5034056;28;20057;-69
2022/06/27 00:06:32;;;;;;;0.82;0.13;;;13.60;99.90;;;;;;5033948;28;20093;-70
2022/06/27 00:08:59;;;;;;;4.82;0.43;;;13.60;99.90;;;;;;5020056;28;20458;-69
2022/06/27 00:11:27;;;;;;;2.38;0.43;;;13.60;99.90;;;;;;5015746;28;20124;-70
2022/06/27 00:13:55;;;;;;;1.55;0.20;;;13.80;99.90;;;;;;5022965;28;20026;-68
2022/06/27 00:16:23;;;;;;;1.00;0.10;;;13.80;99.90;;;;;;5027316;28;20459;-68
2022/06/27 00:18:50;;;;;;;4.03;0.47;;;13.80;99.90;;;;;;5030175;28;20048;-69
2022/06/27 00:21:17;;;;;;;7.32;0.98;;;13.70;99.90;;;;;;5021338;28;20374;-69
2022/06/27 00:23:45;;;;;;;1.88;0.30;;;13.80;99.90;;;;;;5015568;28;20498;-69
2022/06/27 00:26:12;;;;;;;3.28;0.50;;;13.90;99.90;;;;;;5026081;28;20091;-69
2022/06/27 00:28:39;;;;;;;2.50;0.30;;;14.00;99.90;;;;;;5028940;28;20026;-69
2022/06/27 00:31:07;;;;;;;2.92;0.20;;;14.10;99.90;;;;;;5022608;28;20571;-69
2022/06/27 00:33:34;;;;;;;1.60;0.25;;;14.30;99.90;;;;;;5028340;28;20024;-69
2022/06/27 00:36:01;;;;;;;2.42;0.45;;;14.40;99.90;;;;;;5033738;28;20037;-69
2022/06/27 00:38:29;;;;;;;6.88;0.50;;;14.50;99.90;;;;;;5030090;28;20056;-69
2022/06/27 00:40:56;;;;;;;3.25;0.40;;;14.60;99.90;;;;;;5026914;28;20470;-69
2022/06/27 00:43:23;;;;;;;3.47;0.40;;;14.60;99.90;;;;;;5017996;28;20478;-69
2022/06/27 00:45:50;;;;;;;6.40;0.60;;;14.60;99.90;;;;;;5024813;28;20032;-69
2022/06/27 00:48:18;;;;;;;5.05;0.73;;;14.60;99.90;;;;;;5017552;28;20022;-69
2022/06/27 00:50:46;;;;;;;3.05;0.45;;;14.70;99.90;;;;;;5039362;28;20035;-69
2022/06/27 00:53:14;;;;;;;4.53;0.60;;;14.60;99.90;;;;;;5031338;28;20030;-69
2022/06/27 00:55:42;;;;;;;5.63;0.52;;;14.70;99.90;;;;;;5027656;28;20017;-69
2022/06/27 00:58:09;;;;;;;2.00;0.50;;;14.70;99.90;;;;;;5020749;28;20048;-69
2022/06/27 01:00:37;;;;;;;3.63;0.70;;;14.80;99.90;;;;;;5020648;28;20033;-69
2022/06/27 01:03:04;;;;;;;7.63;0.85;;;14.90;99.90;;;;;;5029749;28;20048;-69
2022/06/27 01:05:31;;;;;;;4.22;0.70;;;14.80;99.90;;;;;;5029853;28;20032;-69
2022/06/27 01:07:59;;;;;;;2.72;0.60;;;15.00;99.90;;;;;;5028287;28;20028;-69
2022/06/27 01:10:26;;;;;;;9.18;1.75;;;14.90;99.90;;;;;;5030743;28;20022;-69
2022/06/27 01:12:54;;;;;;;6.40;0.75;;;14.90;99.90;;;;;;5030618;28;20481;-69
2022/06/27 01:15:22;;;;;;;8.05;0.70;;;15.00;99.90;;;;;;5021628;28;20057;-69
2022/06/27 01:17:49;;;;;;;5.63;0.60;;;15.10;99.90;;;;;;5026465;28;20613;-69
2022/06/27 01:20:16;;;;;;;5.03;0.90;;;15.20;99.90;;;;;;5025670;28;20402;-69
2022/06/27 01:22:44;;;;;;;2.88;0.68;;;15.10;99.90;;;;;;5027458;28;20037;-69
2022/06/27 01:25:14;;;;;;;4.63;0.63;;;14.90;99.90;;;;;;5022278;28;20045;-69
2022/06/27 01:27:43;;;;;;;4.93;0.70;;;14.80;99.90;;;;;;5031559;28;20443;-69
2022/06/27 01:30:11;;;;;;;4.30;0.65;;;14.50;99.90;;;;;;5018949;28;20118;-69
2022/06/27 01:32:38;;;;;;;3.38;0.70;;;14.30;99.90;;;;;;5041666;28;20032;-70
2022/06/27 01:35:06;;;;;;;5.78;0.90;;;14.50;99.90;;;;;;5049909;28;20033;-69
2022/06/27 01:37:33;;;;;;;9.25;1.00;;;14.70;99.90;;;;;;5033975;28;20041;-69
2022/06/27 01:40:01;;;;;;;4.57;1.33;;;14.80;99.90;;;;;;5032624;28;20071;-69
2022/06/27 01:42:29;;;;;;;3.35;0.80;;;14.90;99.90;;;;;;5017343;28;20037;-69
2022/06/27 01:44:56;;;;;;;6.63;0.90;;;14.70;99.90;;;;;;5029806;28;20022;-69
2022/06/27 01:47:23;;;;;;;2.60;0.80;;;14.60;99.90;;;;;;5018887;28;20025;-69
2022/06/27 01:49:51;;;;;;;6.78;1.23;;;14.60;99.90;;;;;;5031554;28;20022;-69
2022/06/27 01:52:19;;;;;;;6.32;0.95;;;14.50;99.90;;;;;;5030830;28;20030;-69
2022/06/27 01:54:46;;;;;;;8.10;1.20;;;14.70;99.90;;;;;;5027065;28;20029;-69
2022/06/27 01:57:16;;;;;;;6.72;1.17;;;14.90;99.90;;;;;;5025157;28;20104;-70
2022/06/27 01:59:44;;;;;;;8.70;1.55;;;15.10;99.90;;;;;;5021755;28;20076;-68
2022/06/27 02:02:11;;;;;;;6.28;1.15;;;15.20;99.90;;;;;;5034546;28;20021;-68
2022/06/27 02:04:39;;;;;;;6.57;1.60;;;15.20;99.90;;;;;;5033260;28;20034;-68
2022/06/27 02:07:06;;;;;;;11.07;1.00;;;15.60;99.90;;;;;;5041838;28;20505;-68
2022/06/27 02:09:34;;;;;;;13.18;1.33;;;15.60;99.90;;;;;;5047126;28;20037;-68
2022/06/27 02:12:23;;;;;;;7.28;1.20;;;15.40;99.90;;;;;;5029511;28;20386;-68
2022/06/27 02:14:54;;;;;;;6.38;1.17;;;15.10;99.90;;;;;;5034468;28;20072;-68
2022/06/27 02:17:23;;;;;;;4.57;0.98;;;14.80;99.90;;;;;;5025638;28;20018;-68
2022/06/27 02:19:50;;;;;;;7.50;1.10;;;14.60;99.90;;;;;;5024688;28;20478;-69
2022/06/27 02:22:18;;;;;;;9.05;1.95;;;14.40;99.90;;;;;;5017413;28;20053;-69
2022/06/27 02:24:45;;;;;;;13.32;1.17;;;14.70;99.90;;;;;;5016489;28;20033;-69
2022/06/27 02:27:13;;;;;;;6.45;1.00;;;15.20;99.90;;;;;;5013724;28;20124;-68
2022/06/27 02:29:40;;;;;;;7.22;1.65;;;15.30;99.90;;;;;;5013759;28;20026;-68
2022/06/27 02:32:08;;;;;;;3.25;1.00;;;15.40;99.90;;;;;;5033471;28;20057;-69
2022/06/27 02:34:36;;;;;;;7.65;1.52;;;15.00;99.90;;;;;;5016593;28;20356;-68
2022/06/27 02:37:05;;;;;;;6.97;1.80;;;14.60;99.90;;;;;;5022796;28;20026;-69
2022/06/27 02:39:36;;;;;;;5.05;1.88;;;14.40;99.90;;;;;;5016765;28;20033;-69
2022/06/27 02:42:05;;;;;;;6.88;1.42;;;14.30;99.90;;;;;;5021620;28;20021;-68
2022/06/27 02:44:34;;;;;;;7.90;1.73;;;14.20;99.90;;;;;;5029484;28;20083;-68
2022/06/27 02:47:02;;;;;;;6.93;1.17;;;14.10;99.90;;;;;;5025400;28;20101;-68
2022/06/27 02:49:29;;;;;;;10.88;1.70;;;14.10;99.90;;;;;;5032903;28;20516;-69
2022/06/27 02:52:27;;;;;;;8.68;1.85;;;14.10;99.90;;;;;;5026958;28;20032;-69
2022/06/27 02:55:17;;;;;;;8.07;1.45;;;14.00;99.90;;;;;;5025674;28;20037;-69
2022/06/27 02:58:04;;;;;;;5.53;1.27;;;14.20;99.90;;;;;;5022392;28;20054;-69
2022/06/27 03:00:32;;;;;;;7.13;1.65;;;14.20;99.90;;;;;;5028784;28;20041;-69
2022/06/27 03:03:01;;;;;;;4.68;0.93;;;14.10;99.90;;;;;;5039958;28;20422;-69
2022/06/27 03:05:35;;;;;;;6.68;1.20;;;14.30;99.90;;;;;;5040038;28;20036;-70
2022/06/27 03:08:03;;;;;;;4.60;1.23;;;14.80;99.90;;;;;;5019948;28;20022;-69
2022/06/27 03:10:30;;;;;;;3.03;0.57;;;14.80;99.90;;;;;;5029794;28;20034;-69
2022/06/27 03:12:57;;;;;;;6.80;1.20;;;15.00;99.90;;;;;;5020022;28;20037;-69
2022/06/27 03:15:25;;;;;;;4.03;0.80;;;14.50;99.90;;;;;;5033909;28;20112;-69
2022/06/27 03:17:52;;;;;;;3.03;0.80;;;14.40;99.90;;;;;;5047579;28;20029;-70
2022/06/27 03:20:19;;;;;;;4.35;0.60;;;14.60;99.90;;;;;;5028705;28;20044;-70
2022/06/27 03:22:47;;;;;;;4.25;0.63;;;14.50;99.90;;;;;;5025598;28;20025;-70
2022/06/27 03:25:15;;;;;;;4.28;0.90;;;14.30;99.90;;;;;;5026542;28;20021;-69
2022/06/27 03:27:42;;;;;;;3.92;0.60;;;14.40;99.90;;;;;;5030740;28;20056;-70
2022/06/27 03:30:10;;;;;;;1.73;0.70;;;14.60;99.90;;;;;;5030916;28;20018;-70
2022/06/27 03:32:37;;;;;;;2.63;0.70;;;14.70;98.90;;;;;;5023401;28;20021;-70
2022/06/27 03:35:05;;;;;;;1.80;0.50;;;14.80;98.80;;;;;;5027916;28;20032;-69
2022/06/27 03:37:32;;;;;;;3.42;0.43;;;14.70;98.50;;;;;;5019607;28;20029;-69
2022/06/27 03:39:59;;;;;;;4.25;0.80;;;14.80;99.10;;;;;;5028122;28;20026;-70
2022/06/27 03:42:27;;;;;;;2.35;0.70;;;14.90;98.70;;;;;;5020900;28;20080;-69
2022/06/27 03:44:54;;;;;;;1.92;0.82;;;14.60;99.00;;;;;;5032431;28;20113;-69
2022/06/27 03:47:22;;;;;;;4.75;0.70;;;14.50;99.20;;;;;;5014671;28;20033;-69
2022/06/27 03:50:01;;;;;;;3.90;0.52;;;14.50;99.70;;;;;;5018910;28;20478;-69
2022/06/27 03:52:29;;;;;;;4.50;0.98;;;14.60;99.80;;;;;;5030310;28;20111;-69
2022/06/27 03:54:57;;;;;;;3.75;0.70;;;14.50;99.90;;;;;;5017526;28;20454;-69
2022/06/27 03:57:24;;;;;;;4.47;0.85;;;14.50;99.90;;;;;;5019990;28;20053;-69
2022/06/27 03:59:53;;;;;;;2.28;0.85;;;14.50;99.90;;;;;;5015833;28;20064;-69
2022/06/27 04:02:21;;;;;;;2.67;0.98;;;14.30;99.90;;;;;;5014612;28;20034;-69
2022/06/27 04:04:48;;;;;;;3.75;0.90;;;14.20;99.90;;;;;;5014293;28;20036;-68
2022/06/27 04:07:15;;;;;;;5.90;0.90;;;14.20;99.90;;;;;;5014671;28;20080;-69
2022/06/27 04:09:42;;;;;;;4.55;1.60;;;14.20;99.90;;;;;;5014929;28;20089;-70
2022/06/27 04:12:11;;;;;;;5.97;0.80;;;14.30;99.90;;;;;;5014846;28;20026;-69
2022/06/27 04:14:39;;;;;;;3.47;0.77;;;14.30;99.90;;;;;;5029157;28;20037;-69
2022/06/27 04:17:06;;;;;;;6.47;0.98;;;14.20;99.60;;;;;;5017576;28;20033;-69
2022/06/27 04:19:33;;;;;;;3.75;0.50;;;14.10;99.30;;;;;;5014835;28;20509;-69
2022/06/27 04:22:01;;;;;;;11.00;0.70;;;14.10;99.00;;;;;;5014438;28;20429;-69
2022/06/27 04:24:28;;;;;;;2.70;0.65;;;14.00;99.60;;;;;;5029818;28;20033;-70
2022/06/27 04:26:55;;;;;;;3.80;0.93;;;14.00;99.90;;;;;;5015705;28;20115;-69
2022/06/27 04:29:23;;;;;;;4.35;0.85;;;14.00;99.90;;;;;;5013738;28;20014;-69
2022/06/27 04:31:50;;;;;;;5.93;1.15;;;14.00;99.90;;;;;;5029742;28;20025;-69
2022/06/27 04:34:17;;;;;;;2.63;0.70;;;14.00;99.90;;;;;;5018205;28;20037;-69
2022/06/27 04:36:45;;;;;;;3.97;1.10;;;13.90;99.90;;;;;;5014464;28;20037;-69
2022/06/27 04:39:17;;;;;;;10.00;1.25;;;13.80;99.90;;;;;;5014049;28;20029;-69
2022/06/27 04:41:44;;;;;;;12.27;1.48;;;13.70;99.90;;;;;;5013574;28;20459;-69
2022/06/27 04:44:13;;;;;;;3.00;0.60;;;13.70;99.90;;;;;;5014773;28;20030;-69
2022/06/27 04:46:41;;;;;;;2.33;0.73;;;13.70;99.90;;;;;;5014234;28;20030;-69
2022/06/27 04:49:09;;;;;;;6.47;1.52;;;13.80;99.90;;;;;;5017454;28;20359;-69
2022/06/27 04:51:37;;;;;;;4.72;1.00;;;13.90;99.90;;;;;;5020662;28;20027;-69
2022/06/27 04:54:04;;;;;;;4.20;0.95;;;13.80;99.90;;;;;;5043505;28;20482;-69
2022/06/27 04:56:32;;;;;;;6.88;1.30;;;13.70;99.90;;;;;;5023561;28;20518;-70
2022/06/27 04:58:59;;;;;;;4.20;1.30;;;13.60;99.90;;;;;;5027084;28;20044;-69
2022/06/27 05:01:27;;;;;;;6.03;1.23;;;13.60;99.90;;;;;;5015128;28;20473;-69
2022/06/27 05:03:54;;;;;;;4.35;1.23;;;13.60;99.90;;;;;;5032298;28;20478;-69
2022/06/27 05:06:22;;;;;;;4.28;1.23;;;13.60;99.90;;;;;;5017055;28;20390;-69
2022/06/27 05:08:49;;;;;;;6.50;1.17;;;13.50;99.90;;;;;;5017915;28;20030;-69
2022/06/27 05:11:16;;;;;;;9.95;1.25;;;13.50;99.90;;;;;;5018524;28;20187;-69
2022/06/27 05:13:44;;;;;;;5.70;1.25;;;13.40;99.90;;;;;;5015961;28;20108;-69
2022/06/27 05:16:11;;;;;;;6.20;1.42;;;13.40;99.90;;;;;;5016098;28;20040;-69
2022/06/27 05:18:38;;;;;;;7.18;1.55;;;13.40;99.90;;;;;;5031100;28;20026;-70
2022/06/27 05:21:08;;;;;;;6.70;2.17;;;13.40;99.90;;;;;;5027011;28;20091;-69
2022/06/27 05:23:37;;;;;;;6.72;1.73;;;13.40;99.90;;;;;;5016220;28;20109;-70
2022/06/27 05:26:08;;;;;;;8.07;1.38;;;13.50;99.90;;;;;;5013419;28;20034;-69
2022/06/27 05:28:35;;;;;;;8.50;1.00;;;13.50;99.90;;;;;;5023234;28;20033;-69
2022/06/27 05:31:02;;;;;;;4.38;1.70;;;13.50;99.90;;;;;;5026784;28;20033;-70
2022/06/27 05:33:30;;;;;;;7.57;1.65;;;13.50;99.90;;;;;;5023965;28;20060;-69
2022/06/27 05:35:57;;;;;;;5.70;0.70;;;13.50;99.90;;;;;;5022689;28;20095;-70
2022/06/27 05:38:24;;;;;;;6.72;1.40;;;13.50;99.90;;;;;;5032157;28;20063;-69
2022/06/27 05:40:52;;;;;;;8.48;1.10;;;13.50;99.90;;;;;;5023363;28;20105;-70
2022/06/27 05:43:19;;;;;;;7.47;1.70;;;13.50;99.90;;;;;;5012970;28;20042;-69
2022/06/27 05:45:48;;;;;;;8.85;1.25;;;13.50;99.90;;;;;;5024473;28;20174;-69
2022/06/27 05:48:15;;;;;;;7.15;0.80;;;13.50;99.90;;;;;;5031129;28;20470;-69
2022/06/27 05:50:42;;;;;;;7.25;0.90;;;13.50;99.90;;;;;;5027079;28;20056;-70
2022/06/27 05:53:09;;;;;;;10.13;1.30;;;13.50;99.90;;;;;;5030231;28;20072;-70
2022/06/27 05:55:38;;;;;;;5.28;1.50;;;13.40;99.90;;;;;;5028514;28;20041;-69
2022/06/27 05:58:07;;;;;;;5.60;1.35;;;13.40;99.90;;;;;;5030472;28;20050;-70
2022/06/27 06:00:34;;;;;;;9.13;1.35;;;13.30;99.90;;;;;;5016149;28;20060;-69
2022/06/27 06:03:03;;;;;;;5.15;0.90;;;13.30;99.90;;;;;;5020563;28;20030;-69
2022/06/27 06:05:31;;;;;;;6.60;1.02;;;13.30;99.90;;;;;;5020895;28;20056;-69
2022/06/27 06:08:02;;;;;;;6.25;1.10;;;13.30;99.90;;;;;;5025355;28;20026;-69
2022/06/27 06:10:33;;;;;;;9.45;1.33;;;13.30;99.90;;;;;;5017771;28;20054;-69
2022/06/27 06:13:04;;;;;;;6.07;0.75;;;13.30;99.90;;;;;;5022567;28;20014;-69
2022/06/27 06:15:32;;;;;;;5.65;1.20;;;13.30;99.90;;;;;;5016597;28;20025;-69
2022/06/27 06:18:03;;;;;;;6.20;2.08;;;13.30;99.90;;;;;;5015595;28;20033;-69
2022/06/27 06:20:32;;;;;;;7.28;1.50;;;13.30;99.90;;;;;;5018631;28;20029;-69
2022/06/27 06:23:00;;;;;;;3.78;0.73;;;13.20;99.90;;;;;;5030845;28;20496;-69
2022/06/27 06:25:29;;;;;;;6.40;0.85;;;13.20;99.90;;;;;;5022671;28;20025;-70
2022/06/27 06:28:01;;;;;;;9.52;1.27;;;13.10;99.90;;;;;;5017276;28;20120;-70
2022/06/27 06:30:30;;;;;;;6.78;0.88;;;13.10;99.90;;;;;;5021555;28;20033;-70
2022/06/27 06:33:05;;;;;;;6.03;0.95;;;13.10;99.90;;;;;;5022950;28;20478;-70
2022/06/27 06:35:33;;;;;;;7.70;1.15;;;13.10;99.90;;;;;;5022235;28;20029;-69
2022/06/27 06:38:05;;;;;;;15.02;3.85;;;13.00;99.90;;;;;;5023395;28;20021;-69
2022/06/27 06:40:33;;;;;;;3.35;1.20;;;13.00;99.90;;;;;;5024897;28;20382;-69
2022/06/27 06:43:01;;;;;;;8.77;1.80;;;12.90;99.90;;;;;;5019023;28;20133;-70
2022/06/27 06:45:30;;;;;;;3.58;0.50;;;12.90;99.90;;;;;;5022343;28;20494;-70
2022/06/27 06:47:58;;;;;;;6.57;1.35;;;12.80;99.90;;;;;;5028479;28;20482;-70
2022/06/27 06:50:25;;;;;;;4.65;1.02;;;12.90;99.90;;;;;;5021312;28;20023;-70
2022/06/27 06:52:53;;;;;;;11.98;4.07;;;12.80;99.90;;;;;;5022024;28;20080;-71
2022/06/27 06:55:22;;;;;;;9.63;3.00;;;12.80;99.90;;;;;;5024823;28;20028;-70
2022/06/27 06:57:50;;;;;;;15.00;3.67;;;12.80;99.90;;;;;;5029855;28;20494;-71
2022/06/27 07:00:19;;;;;;;11.02;4.32;;;12.70;99.90;;;;;;5028791;28;20045;-70
2022/06/27 07:02:48;;;;;;;6.07;2.00;;;12.60;99.90;;;;;;5020111;28;20025;-70
2022/06/27 07:05:16;;;;;;;9.70;3.40;;;12.60;99.90;;;;;;5016635;28;20494;-70
2022/06/27 07:07:44;;;;;;;7.88;2.25;;;12.60;99.90;;;;;;5015581;28;20482;-70
2022/06/27 07:10:13;;;;;;;9.50;2.92;;;12.60;99.90;;;;;;5037249;28;20064;-70
2022/06/27 07:12:42;;;;;;;7.43;1.67;;;12.60;99.80;;;;;;5014441;28;20018;-70
2022/06/27 07:15:10;;;;;;;5.47;2.25;;;12.50;99.70;;;;;;5027096;28;20436;-70
2022/06/27 07:17:46;;;;;;;7.93;1.77;;;12.60;99.20;;;;;;5023121;28;20123;-70
2022/06/27 07:20:18;;;;;;;7.00;0.95;;;12.50;99.10;;;;;;5015532;28;20026;-70
2022/06/27 07:22:50;;;;;;;4.35;1.10;;;12.50;99.00;;;;;;5020450;28;20029;-71
2022/06/27 07:25:18;;;;;;;4.13;0.90;;;12.40;99.00;;;;;;5031382;28;20034;-69
2022/06/27 07:27:46;;;;;;;4.57;0.75;;;12.40;99.00;;;;;;5044152;28;20030;-70
2022/06/27 07:30:15;;;;;;;4.85;1.02;;;12.40;98.50;;;;;;5037487;28;20387;-70
2022/06/27 07:32:43;;;;;;;5.13;0.80;;;12.40;98.70;;;;;;5030096;28;20087;-70
2022/06/27 07:35:12;;;;;;;7.25;0.93;;;12.40;98.60;;;;;;5030138;28;20030;-69
2022/06/27 07:37:47;;;;;;;8.77;1.08;;;12.40;98.50;;;;;;5021579;28;20020;-69
2022/06/27 07:40:20;;;;;;;6.35;0.80;;;12.30;98.50;;;;;;5025927;28;20191;-69
2022/06/27 07:42:49;;;;;;;5.97;0.52;;;12.30;98.40;;;;;;5024678;28;20481;-69
2022/06/27 07:45:18;;;;;;;3.60;0.50;;;12.20;98.40;;;;;;5017212;28;20360;-69
2022/06/27 07:47:49;;;;;;;3.70;0.40;;;12.30;98.20;;;;;;5029106;28;20060;-71
2022/06/27 07:53:12;;;;;;;4.03;0.65;;;12.30;98.10;;;;;;5035617;28;20117;-71
2022/06/27 07:55:57;;;;;;;7.55;0.90;;;12.30;98.00;;;;;;5046652;28;20079;-70
2022/06/27 07:58:33;;;;;;;1.35;0.40;;;12.20;98.10;;;;;;5038689;28;20045;-70
2022/06/27 08:01:02;;;;;;;4.93;2.13;;;12.10;97.90;;;;;;5049163;28;20043;-71
2022/06/27 08:03:44;;;;;;;3.35;0.77;;;12.10;98.10;;;;;;5044183;28;20555;-70
2022/06/27 08:06:18;;;;;;;2.55;0.70;;;12.00;98.30;;;;;;5032898;28;20394;-71
2022/06/27 08:08:58;;;;;;;4.93;1.00;;;12.00;98.20;;;;;;5035211;28;20179;-70
2022/06/27 08:11:30;;;;;;;3.63;0.47;;;11.90;98.40;;;;;;5024458;28;20475;-71
2022/06/27 08:14:03;;;;;;;3.58;0.60;;;11.90;98.20;;;;;;5031756;28;20141;-70
2022/06/27 08:16:31;;;;;;;4.35;0.50;;;11.80;98.40;;;;;;5055472;28;20021;-71
2022/06/27 08:18:59;;;;;;;5.18;0.60;;;11.80;98.30;;;;;;5023749;28;20038;-71
2022/06/27 08:21:28;;;;;;;3.08;1.10;;;11.80;98.40;;;;;;5022715;28;20103;-71
2022/06/27 08:24:07;;;;;;;3.92;1.00;;;11.80;98.40;;;;;;5041764;28;20057;-70
2022/06/27 08:26:36;;;;;;;4.70;0.68;;;12.00;98.20;;;;;;5015584;28;20026;-71
2022/06/27 08:29:05;;;;;;;3.08;0.82;;;12.00;98.20;;;;;;5015277;28;20026;-71
2022/06/27 08:31:34;;;;;;;4.82;0.90;;;12.00;98.60;;;;;;5018498;28;20052;-70
2022/06/27 08:34:02;;;;;;;6.15;0.85;;;12.00;98.70;;;;;;5041576;28;20035;-70
2022/06/27 08:36:31;;;;;;;4.43;1.02;;;12.00;99.10;;;;;;5022042;28;20025;-70
2022/06/27 08:39:11;;;;;;;2.10;0.90;;;11.80;99.70;;;;;;5028276;28;20394;-71
2022/06/27 08:41:39;;;;;;;4.07;0.80;;;11.70;99.80;;;;;;5054248;28;20052;-71
2022/06/27 08:44:08;;;;;;;2.33;0.70;;;11.70;99.70;;;;;;5021862;28;20038;-70
2022/06/27 08:46:35;;;;;;;3.40;0.90;;;11.70;99.80;;;;;;5024070;28;20025;-71
2022/06/27 08:49:05;;;;;;;4.00;0.90;;;11.70;99.60;;;;;;5054672;28;20041;-71
2022/06/27 08:51:33;;;;;;;1.77;0.85;;;11.60;99.50;;;;;;5049800;28;20030;-71
2022/06/27 08:54:01;;;;;;;4.57;0.70;;;11.60;99.30;;;;;;5023755;28;20084;-71
2022/06/27 08:56:30;;;;;;;3.28;0.80;;;11.50;99.30;;;;;;5027270;28;20115;-71
2022/06/27 08:58:59;;;;;;;4.88;1.23;;;11.40;99.30;;;;;;5034393;28;20042;-71
2022/06/27 09:01:28;;;;;;;5.15;2.35;;;11.40;99.40;;;;;;5043489;28;20028;-70
2022/06/27 09:04:06;;;;;;;4.72;1.48;;;11.30;99.50;;;;;;5042327;28;20036;-70
2022/06/27 09:06:45;;;;;;;5.90;1.98;;;11.30;99.50;;;;;;5035020;28;20091;-71
2022/06/27 09:09:15;;;;;;;5.60;1.38;;;11.30;99.40;;;;;;5031303;28;20026;-70
2022/06/27 09:11:44;;;;;;;2.85;1.05;;;11.30;99.50;;;;;;5028910;28;20044;-70
2022/06/27 09:14:32;;;;;;;2.80;1.25;;;11.20;99.90;;;;;;5021488;28;20506;-70
2022/06/27 09:17:02;;;;;;;9.23;2.53;;;11.20;99.60;;;;;;5046318;28;20493;-71
2022/06/27 09:20:02;;;;;;;4.32;1.40;;;11.00;99.90;;;;;;5031459;28;20029;-70
2022/06/27 09:22:36;;;;;;;5.68;1.20;;;11.00;99.90;;;;;;5040402;28;20112;-69
2022/06/27 09:25:20;;;;;;;4.35;1.15;;;11.00;99.90;;;;;;5042514;28;20104;-69
2022/06/27 09:27:52;;;;;;;2.97;1.08;;;11.10;99.90;;;;;;5022126;28;20033;-69
2022/06/27 09:30:22;;;;;;;4.25;1.27;;;11.10;99.80;;;;;;5037742;28;20044;-69
2022/06/27 09:32:58;;;;;;;3.45;1.30;;;11.10;99.70;;;;;;5052796;28;20108;-69
2022/06/27 09:35:36;;;;;;;3.70;1.35;;;11.20;99.80;;;;;;5027090;28;20554;-69
2022/06/27 09:38:09;;;;;;;4.40;1.38;;;11.10;99.90;;;;;;5037675;28;20042;-69
2022/06/27 09:40:40;;;;;;;3.63;0.90;;;11.20;99.90;;;;;;5032200;28;20040;-69
2022/06/27 09:43:10;;;;;;;4.15;1.00;;;11.10;99.90;;;;;;5048184;28;20057;-69
2022/06/27 09:45:38;;;;;;;3.00;1.10;;;11.10;99.90;;;;;;5030610;28;20537;-69
2022/06/27 09:48:07;;;;;;;3.22;0.68;;;11.10;99.90;;;;;;5048923;28;20061;-69
2022/06/27 09:50:39;;;;;;;4.78;2.08;;;11.00;99.90;;;;;;5035109;28;20021;-69
2022/06/27 09:53:07;;;;;;;3.78;0.60;;;10.90;99.90;;;;;;5030782;28;20017;-69
2022/06/27 09:55:36;;;;;;;3.30;0.80;;;10.90;99.90;;;;;;5013245;28;20100;-69
2022/06/27 09:58:06;;;;;;;7.03;1.40;;;10.80;99.90;;;;;;5034218;28;20557;-69
2022/06/27 10:00:34;;;;;;;5.68;1.10;;;10.90;99.90;;;;;;5040537;28;20119;-69
2022/06/27 10:03:02;;;;;;;1.92;0.75;;;10.90;99.90;;;;;;5029595;28;20385;-69
2022/06/27 10:05:29;;;;;;;4.07;0.70;;;11.00;99.90;;;;;;5032429;28;20466;-69
2022/06/27 10:08:04;;;;;;;3.28;0.63;;;11.10;99.90;;;;;;5031360;28;20045;-69
2022/06/27 10:10:53;;;;;;;6.10;0.93;;;11.10;99.90;;;;;;5042996;28;20034;-69
2022/06/27 10:13:20;;;;;;;3.10;0.50;;;11.10;99.90;;;;;;5025821;28;20409;-69
2022/06/27 10:15:49;;;;;;;7.63;1.40;;;11.00;99.90;;;;;;5032594;28;20112;-69
2022/06/27 10:18:17;;;;;;;5.70;1.30;;;10.80;99.90;;;;;;5027073;28;20009;-70
2022/06/27 10:20:47;;;;;;;2.63;0.70;;;10.80;99.90;;;;;;5031739;28;20478;-69
2022/06/27 10:23:14;;;;;;;6.10;0.82;;;10.80;99.90;;;;;;5041090;28;20117;-70
2022/06/27 10:25:44;;;;;;;9.23;1.58;;;10.70;99.90;;;;;;5029616;28;20018;-69
2022/06/27 10:28:14;;;;;;;5.00;1.08;;;10.70;99.90;;;;;;5033907;28;20018;-69
2022/06/27 10:30:42;;;;;;;5.93;1.23;;;10.80;99.90;;;;;;5030015;28;20495;-69
2022/06/27 10:33:28;;;;;;;6.57;1.33;;;10.80;99.90;;;;;;5028134;28;20029;-69
2022/06/27 10:38:40;;;;;;;5.85;1.15;;;10.90;99.90;;;;;;5035602;28;20398;-69
2022/06/27 10:41:31;;;;;;;4.10;0.50;;;10.90;99.90;;;;;;5031637;28;20032;-70
2022/06/27 10:44:03;;;;;;;6.55;1.05;;;10.90;99.90;;;;;;5034604;28;20048;-68
2022/06/27 10:46:30;;;;;;;3.28;0.70;;;10.90;99.90;;;;;;5037159;28;20470;-69
2022/06/27 10:49:16;;;;;;;7.82;1.15;;;10.90;99.90;;;;;;5012931;28;20105;-68
2022/06/27 10:51:43;;;;;;;4.30;1.08;;;10.70;99.90;;;;;;5024819;28;20033;-67
2022/06/27 10:54:12;;;;;;;5.65;1.25;;;10.80;99.90;;;;;;5013341;28;20394;-67
2022/06/27 10:56:55;;;;;;;4.55;0.93;;;10.70;99.90;;;;;;5047509;28;20052;-68
2022/06/27 10:59:22;;;;;;;6.75;1.77;;;10.70;99.90;;;;;;5030466;28;20117;-68
2022/06/27 11:01:58;;;;;;;6.30;1.05;;;10.70;99.90;;;;;;5031590;28;20024;-68
2022/06/27 11:04:38;;;;;;;5.10;1.38;;;10.70;99.90;;;;;;5031982;28;20021;-68
2022/06/27 11:07:08;;;;;;;5.50;0.90;;;10.70;99.90;;;;;;5050550;28;20036;-68
2022/06/27 11:09:37;;;;;;;4.07;0.63;;;10.70;99.90;;;;;;5033970;28;20020;-68
2022/06/27 11:12:06;;;;;;;10.18;1.00;;;10.60;99.90;;;;;;5033111;28;20049;-68
2022/06/27 11:14:49;;;;;;;6.13;1.42;;;10.50;99.90;;;;;;5032535;28;20026;-68
2022/06/27 11:17:35;;;;;;;6.50;0.82;;;10.50;99.90;;;;;;5036002;28;20366;-68
2022/06/27 11:20:21;;;;;;;3.05;0.70;;;10.30;99.90;;;;;;5055984;28;20059;-68
2022/06/27 11:22:55;;;;;;;3.70;1.02;;;10.40;99.90;;;;;;5023924;28;20040;-68
2022/06/27 11:25:24;;;;;;;7.70;1.20;;;10.30;99.90;;;;;;5037369;28;20024;-68
2022/06/27 11:27:54;;;;;;;2.78;0.70;;;10.40;99.90;;;;;;5033902;28;20021;-68
2022/06/27 11:33:27;;;;;;;4.00;0.95;;;10.20;99.90;;;;;;5028715;28;20049;-68
2022/06/27 11:35:56;;;;;;;4.90;1.45;;;10.00;99.90;;;;;;5029951;28;20048;-68
2022/06/27 11:38:28;;;;;;;3.08;0.90;;;10.00;99.90;;;;;;5025389;28;20105;-68
2022/06/27 11:41:01;;;;;;;4.82;1.05;;;10.00;99.90;;;;;;5029387;28;20034;-69
2022/06/27 11:43:51;;;;;;;3.88;0.70;;;10.00;99.90;;;;;;5038098;28;20025;-68
2022/06/27 11:46:46;;;;;;;4.05;0.90;;;9.90;99.90;;;;;;5033202;28;20078;-68
2022/06/27 11:49:16;;;;;;;5.82;1.08;;;9.90;99.90;;;;;;5023281;28;20071;-68
2022/06/27 11:51:48;;;;;;;6.97;1.63;;;9.90;99.90;;;;;;5020383;28;20482;-68
2022/06/27 11:54:20;;;;;;;3.58;0.90;;;9.90;99.90;;;;;;5023660;28;20026;-67
2022/06/27 11:56:50;;;;;;;2.42;0.85;;;9.80;99.90;;;;;;5024673;28;20052;-68
2022/06/27 11:59:19;;;;;;;3.22;1.13;;;9.60;99.90;;;;;;5017536;28;20033;-68
2022/06/27 12:02:03;;;;;;;5.47;1.10;;;9.50;99.90;;;;;;5030600;28;20496;-68
2022/06/27 12:04:35;;;;;;;4.15;2.00;;;9.50;99.90;;;;;;5040293;28;20104;-68
2022/06/27 12:07:07;;;;;;;4.00;1.33;;;9.40;99.90;;;;;;5019536;28;20034;-67
2022/06/27 12:09:48;;;;;;;4.32;1.55;;;9.30;99.90;;;;;;5027103;28;20135;-68
2022/06/27 12:12:34;;;;;;;5.95;1.33;;;9.30;99.90;;;;;;5030736;28;20083;-68
2022/06/27 12:15:01;;;;;;;5.53;1.98;;;9.20;99.90;;;;;;5025290;28;20128;-69
2022/06/27 12:17:39;;;;;;;4.32;1.30;;;8.90;99.90;;;;;;5016741;28;20156;-68
2022/06/27 12:20:09;;;;;;;6.65;1.92;;;8.70;99.90;;;;;;5024759;28;20371;-69
2022/06/27 12:22:36;;;;;;;5.47;2.00;;;8.70;99.90;;;;;;5022271;28;20022;-68
2022/06/27 12:25:03;;;;;;;5.40;1.70;;;8.40;99.90;;;;;;5025846;28;20041;-68
2022/06/27 12:27:31;;;;;;;4.93;1.63;;;8.40;99.90;;;;;;5019005;28;20029;-68
2022/06/27 12:29:58;;;;;;;4.68;1.30;;;8.30;99.90;;;;;;5024798;28;20100;-68
2022/06/27 12:32:25;;;;;;;5.28;1.38;;;8.30;99.90;;;;;;5031745;28;20104;-68
2022/06/27 12:34:53;;;;;;;5.93;2.35;;;8.40;99.90;;;;;;5029935;28;20052;-68
2022/06/27 12:37:20;;;;;;;5.60;1.85;;;8.50;99.90;;;;;;5035473;28;20034;-68
2022/06/27 12:39:47;;;;;;;8.75;1.42;;;8.40;99.90;;;;;;5035787;28;20052;-68
2022/06/27 12:42:14;;;;;;;6.20;1.92;;;8.50;99.90;;;;;;5024519;28;20021;-68
2022/06/27 12:44:42;;;;;;;3.55;1.40;;;8.60;99.90;;;;;;5020135;28;20030;-70
2022/06/27 12:47:09;;;;;;;4.82;1.52;;;8.70;99.90;;;;;;5018869;28;20402;-69
2022/06/27 12:49:36;;;;;;;7.30;1.60;;;8.70;99.90;;;;;;5029463;28;20029;-70
2022/06/27 12:52:04;;;;;;;2.92;1.20;;;8.80;99.90;;;;;;5017069;28;20029;-70
2022/06/27 12:54:32;;;;;;;5.50;1.33;;;9.00;99.90;;;;;;5032215;28;20034;-70
2022/06/27 12:57:00;;;;;;;5.05;1.58;;;9.10;99.90;;;;;;5023994;28;20064;-69
2022/06/27 12:59:28;;;;;;;4.72;1.65;;;9.30;99.90;;;;;;5037660;28;20051;-70
2022/06/27 13:01:55;;;;;;;6.30;1.95;;;9.30;99.90;;;;;;5017871;28;20029;-69
2022/06/27 13:04:22;;;;;;;5.32;2.13;;;9.20;99.90;;;;;;5038748;28;20036;-69
2022/06/27 13:06:50;;;;;;;9.48;2.35;;;9.00;99.90;;;;;;5016347;28;20049;-69
2022/06/27 13:09:17;;;;;;;7.05;1.80;;;9.10;99.90;;;;;;5041624;28;20025;-68
2022/06/27 13:11:44;;;;;;;4.43;1.55;;;9.00;99.90;;;;;;5017893;28;20067;-68